Time;durP1;ratioP1;P1;durP2;ratioP2;P2;SDS_P1;SDS_P2;PMS_P1;PMS_P2;Temp;Humidity;BMP_temperature;BMP_pressure;BME280_temperature;BME280_humidity;BME280_pressure;Samples;Min_cycle;Max_cycle;Signal;HPM_P1;HPM_P2
2020/12/26 00:01:16;;;;;;;4.05;1.83;;;3.70;79.40;;;;;;4999292;28;20112;-62
2020/12/26 00:03:42;;;;;;;2.22;1.30;;;3.70;79.10;;;;;;4999044;28;20042;-63
2020/12/26 00:06:12;;;;;;;5.45;1.45;;;3.70;79.20;;;;;;4998149;28;20029;-62
2020/12/26 00:08:38;;;;;;;5.05;1.60;;;3.70;79.30;;;;;;4998625;28;20635;-63
2020/12/26 00:11:08;;;;;;;4.65;1.75;;;3.60;79.50;;;;;;4998389;28;20038;-63
2020/12/26 00:13:34;;;;;;;5.90;1.83;;;3.60;79.80;;;;;;4997739;28;20049;-63
2020/12/26 00:16:03;;;;;;;2.75;1.30;;;3.60;80.20;;;;;;4998029;28;20037;-63
2020/12/26 00:18:29;;;;;;;6.38;1.63;;;3.60;79.90;;;;;;4998072;28;20572;-63
2020/12/26 00:20:55;;;;;;;2.78;1.50;;;3.50;79.80;;;;;;4998067;28;20034;-63
2020/12/26 00:23:20;;;;;;;5.53;1.40;;;3.60;79.60;;;;;;4998131;28;20037;-63
2020/12/26 00:25:46;;;;;;;4.85;1.45;;;3.60;78.90;;;;;;5001080;28;20061;-63
2020/12/26 00:28:11;;;;;;;6.07;1.92;;;3.60;79.30;;;;;;5002173;28;20696;-63
2020/12/26 00:30:37;;;;;;;6.53;1.65;;;3.60;79.90;;;;;;4985110;28;20042;-63
2020/12/26 00:33:03;;;;;;;3.63;1.60;;;3.60;79.60;;;;;;5003117;28;20087;-63
2020/12/26 00:35:28;;;;;;;4.47;1.50;;;3.60;79.40;;;;;;5002144;28;20116;-63
2020/12/26 00:37:54;;;;;;;4.00;1.50;;;3.60;78.90;;;;;;5003153;28;20043;-63
2020/12/26 00:40:20;;;;;;;4.43;1.50;;;3.60;78.40;;;;;;5002856;28;20045;-62
2020/12/26 00:42:45;;;;;;;2.15;1.35;;;3.50;78.50;;;;;;5002839;28;20109;-62
2020/12/26 00:45:11;;;;;;;2.47;1.00;;;3.40;79.00;;;;;;5002342;28;20030;-63
2020/12/26 00:47:37;;;;;;;6.85;1.25;;;3.40;78.90;;;;;;5002503;28;20116;-62
2020/12/26 00:50:03;;;;;;;2.97;1.73;;;3.40;79.20;;;;;;5001919;28;20639;-63
2020/12/26 00:52:29;;;;;;;2.90;1.55;;;3.40;79.10;;;;;;4984704;28;20042;-63
2020/12/26 00:54:55;;;;;;;2.63;1.33;;;3.30;78.90;;;;;;4977496;28;20037;-63
2020/12/26 00:57:21;;;;;;;2.53;1.20;;;3.30;79.20;;;;;;5001490;28;20042;-63
2020/12/26 00:59:47;;;;;;;5.95;1.77;;;3.30;79.20;;;;;;5002169;28;20131;-63
2020/12/26 01:02:14;;;;;;;4.00;1.10;;;3.30;79.20;;;;;;4984473;28;20571;-62
2020/12/26 01:04:48;;;;;;;3.13;1.52;;;3.30;78.80;;;;;;4984012;28;20136;-63
2020/12/26 01:07:13;;;;;;;3.67;1.42;;;3.20;79.70;;;;;;5001490;28;20177;-63
2020/12/26 01:09:39;;;;;;;4.55;1.50;;;3.20;79.40;;;;;;5001711;28;20272;-63
2020/12/26 01:12:05;;;;;;;3.40;1.35;;;3.30;79.20;;;;;;4984015;28;20037;-63
2020/12/26 01:14:30;;;;;;;4.90;1.52;;;3.30;79.20;;;;;;4984145;28;20034;-64
2020/12/26 01:16:56;;;;;;;3.65;1.48;;;3.30;79.50;;;;;;4983476;28;20049;-63
2020/12/26 01:19:21;;;;;;;5.53;1.45;;;3.20;79.00;;;;;;5001486;28;20117;-63
2020/12/26 01:21:51;;;;;;;7.53;1.63;;;3.20;79.30;;;;;;5001525;28;20049;-63
2020/12/26 01:24:18;;;;;;;2.25;1.10;;;3.10;79.70;;;;;;5001288;28;20190;-63
2020/12/26 01:26:48;;;;;;;3.83;1.30;;;3.10;79.60;;;;;;5000773;28;20038;-63
2020/12/26 01:29:14;;;;;;;3.72;1.30;;;3.10;79.40;;;;;;5001498;28;20049;-60
2020/12/26 01:31:40;;;;;;;3.08;1.02;;;3.10;79.40;;;;;;5001629;28;20116;-63
2020/12/26 01:34:06;;;;;;;3.35;1.40;;;3.00;79.70;;;;;;4983482;28;20088;-63
2020/12/26 01:36:32;;;;;;;3.60;1.02;;;2.90;79.80;;;;;;5000212;28;20033;-63
2020/12/26 01:38:58;;;;;;;2.38;1.30;;;3.00;80.20;;;;;;5001169;28;20099;-62
2020/12/26 01:41:23;;;;;;;3.35;1.10;;;3.00;80.00;;;;;;5000773;28;20264;-63
2020/12/26 01:43:54;;;;;;;6.38;1.65;;;3.10;79.60;;;;;;5001172;28;20087;-62
2020/12/26 01:46:20;;;;;;;2.47;1.42;;;3.10;79.40;;;;;;5000903;28;20040;-63
2020/12/26 01:48:46;;;;;;;3.33;1.52;;;3.10;79.90;;;;;;4998581;28;20038;-63
2020/12/26 01:51:12;;;;;;;8.40;1.42;;;3.10;79.60;;;;;;4996711;28;20087;-63
2020/12/26 01:53:39;;;;;;;4.18;1.10;;;3.00;79.40;;;;;;4983341;28;20041;-63
2020/12/26 01:56:05;;;;;;;2.78;1.40;;;3.00;79.80;;;;;;4982654;28;20038;-63
2020/12/26 01:58:35;;;;;;;1.73;1.10;;;2.90;80.40;;;;;;5001015;28;20042;-62
2020/12/26 02:01:01;;;;;;;3.17;1.30;;;3.00;79.40;;;;;;4999449;28;20037;-62
2020/12/26 02:03:26;;;;;;;4.13;1.40;;;3.00;80.30;;;;;;5000144;28;20048;-62
2020/12/26 02:05:54;;;;;;;2.35;1.13;;;3.00;79.40;;;;;;4999985;28;20046;-62
2020/12/26 02:08:20;;;;;;;5.88;1.60;;;2.90;79.60;;;;;;5000500;28;20041;-62
2020/12/26 02:10:46;;;;;;;3.33;1.35;;;3.00;80.20;;;;;;5000053;28;20037;-63
2020/12/26 02:13:11;;;;;;;4.97;1.05;;;3.00;79.40;;;;;;4982818;28;20030;-62
2020/12/26 02:15:37;;;;;;;1.60;1.13;;;2.90;79.10;;;;;;4999833;28;20164;-62
2020/12/26 02:18:03;;;;;;;5.22;1.13;;;2.90;79.30;;;;;;5000030;28;20045;-63
2020/12/26 02:20:28;;;;;;;3.72;1.20;;;2.90;79.60;;;;;;5000355;28;20141;-63
2020/12/26 02:22:54;;;;;;;3.00;1.08;;;3.00;79.40;;;;;;4982022;28;20030;-62
2020/12/26 02:25:20;;;;;;;4.13;1.05;;;3.00;78.40;;;;;;4999397;28;20049;-65
2020/12/26 02:27:45;;;;;;;3.10;1.08;;;3.00;79.00;;;;;;5000181;28;20054;-63
2020/12/26 02:30:11;;;;;;;5.13;1.30;;;3.00;79.20;;;;;;5000298;28;20033;-63
2020/12/26 02:32:37;;;;;;;3.95;1.17;;;3.00;79.20;;;;;;4999348;28;20040;-63
2020/12/26 02:35:04;;;;;;;6.15;1.50;;;2.90;79.10;;;;;;4999447;28;20030;-62
2020/12/26 02:37:30;;;;;;;2.63;1.33;;;2.90;79.00;;;;;;5000037;28;20234;-63
2020/12/26 02:39:56;;;;;;;4.60;1.17;;;2.90;79.20;;;;;;4993277;28;20044;-62
2020/12/26 02:42:21;;;;;;;3.33;1.02;;;2.90;78.90;;;;;;4999773;28;20658;-63
2020/12/26 02:44:47;;;;;;;7.03;1.42;;;2.90;78.90;;;;;;4996954;28;20046;-63
2020/12/26 02:47:13;;;;;;;2.17;1.05;;;2.80;79.10;;;;;;4994471;28;20502;-63
2020/12/26 02:49:38;;;;;;;3.42;1.10;;;2.80;79.00;;;;;;4999456;28;20083;-64
2020/12/26 02:52:04;;;;;;;3.63;0.90;;;2.90;79.50;;;;;;4999385;28;20172;-63
2020/12/26 02:54:30;;;;;;;4.38;1.42;;;2.90;79.20;;;;;;4999435;28;20036;-63
2020/12/26 02:56:55;;;;;;;4.13;1.30;;;2.80;79.00;;;;;;4992282;28;20038;-63
2020/12/26 02:59:21;;;;;;;4.75;1.17;;;2.90;79.40;;;;;;4999654;28;20077;-63
2020/12/26 03:01:46;;;;;;;3.58;1.38;;;2.80;79.60;;;;;;4998913;28;20033;-63
2020/12/26 03:04:12;;;;;;;2.35;1.00;;;2.80;79.20;;;;;;4998741;28;20769;-63
2020/12/26 03:06:38;;;;;;;3.95;1.30;;;2.80;79.90;;;;;;4998413;28;20482;-63
2020/12/26 03:09:04;;;;;;;3.65;1.25;;;2.80;79.80;;;;;;4999507;28;20482;-62
2020/12/26 03:11:29;;;;;;;3.42;1.17;;;2.80;80.00;;;;;;4998793;28;20034;-64
2020/12/26 03:13:55;;;;;;;4.28;1.75;;;2.80;80.40;;;;;;4999150;28;20068;-63
2020/12/26 03:16:21;;;;;;;7.10;1.45;;;2.80;79.40;;;;;;4998933;28;20053;-63
2020/12/26 03:18:46;;;;;;;2.47;1.05;;;2.80;79.80;;;;;;4980784;28;20042;-63
2020/12/26 03:21:13;;;;;;;3.63;1.30;;;2.80;79.40;;;;;;4999324;28;20062;-63
2020/12/26 03:23:39;;;;;;;2.35;1.30;;;2.90;79.60;;;;;;4998673;28;20450;-63
2020/12/26 03:26:05;;;;;;;1.45;0.98;;;2.90;79.40;;;;;;4980266;28;20048;-63
2020/12/26 03:28:30;;;;;;;3.63;1.30;;;2.80;79.30;;;;;;4998178;28;20038;-63
2020/12/26 03:30:56;;;;;;;2.67;1.20;;;2.80;79.50;;;;;;4998981;28;20107;-63
2020/12/26 03:33:22;;;;;;;3.38;1.25;;;2.70;80.00;;;;;;4998061;28;20092;-63
2020/12/26 03:35:47;;;;;;;2.53;1.30;;;2.70;80.30;;;;;;4998295;28;20061;-62
2020/12/26 03:38:13;;;;;;;5.25;1.77;;;2.70;80.40;;;;;;4999069;28;20800;-63
2020/12/26 03:40:38;;;;;;;1.50;1.00;;;2.80;80.30;;;;;;4998161;28;20033;-63
2020/12/26 03:43:04;;;;;;;3.05;1.10;;;2.80;79.80;;;;;;4980802;28;20088;-63
2020/12/26 03:45:30;;;;;;;4.22;1.13;;;2.80;80.10;;;;;;4998179;28;20120;-63
2020/12/26 03:47:55;;;;;;;4.65;1.30;;;2.80;79.40;;;;;;4991730;28;20030;-63
2020/12/26 03:50:21;;;;;;;4.53;1.77;;;2.70;79.20;;;;;;4998610;28;20034;-62
2020/12/26 03:52:47;;;;;;;3.05;1.27;;;2.80;79.60;;;;;;4998785;28;20071;-63
2020/12/26 03:55:12;;;;;;;3.15;1.13;;;2.80;79.40;;;;;;4997114;28;20177;-62
2020/12/26 03:57:38;;;;;;;2.25;0.93;;;2.80;79.30;;;;;;4998744;28;20092;-63
2020/12/26 04:00:06;;;;;;;3.33;1.13;;;2.80;79.20;;;;;;5002566;28;20041;-63
2020/12/26 04:02:32;;;;;;;3.08;1.40;;;2.80;79.30;;;;;;5002061;28;20038;-63
2020/12/26 04:04:57;;;;;;;2.53;1.40;;;2.80;79.00;;;;;;5002235;28;20041;-62
2020/12/26 04:07:23;;;;;;;4.35;1.38;;;2.80;79.00;;;;;;5002064;28;20043;-63
2020/12/26 04:09:49;;;;;;;3.28;1.65;;;2.80;79.30;;;;;;5002429;28;20513;-63
2020/12/26 04:12:14;;;;;;;4.45;1.17;;;2.70;78.40;;;;;;5002755;28;21069;-62
2020/12/26 04:14:40;;;;;;;3.40;1.73;;;2.60;79.00;;;;;;5003177;28;20030;-63
2020/12/26 04:17:05;;;;;;;2.42;1.42;;;2.70;79.60;;;;;;4985057;28;20042;-63
2020/12/26 04:19:31;;;;;;;3.88;1.35;;;2.70;78.90;;;;;;5003402;28;20488;-62
2020/12/26 04:21:57;;;;;;;5.40;1.45;;;2.60;79.30;;;;;;5003546;28;20117;-63
2020/12/26 04:24:23;;;;;;;4.47;1.67;;;2.60;79.20;;;;;;5003024;28;20144;-64
2020/12/26 04:26:50;;;;;;;2.92;1.48;;;2.60;78.90;;;;;;5003107;28;20061;-63
2020/12/26 04:29:15;;;;;;;2.28;1.40;;;2.60;79.50;;;;;;5002662;28;20049;-62
2020/12/26 04:31:41;;;;;;;3.25;1.80;;;2.60;79.90;;;;;;5002016;28;20034;-64
2020/12/26 04:34:07;;;;;;;4.75;1.45;;;2.50;79.90;;;;;;5002051;28;20034;-62
2020/12/26 04:36:33;;;;;;;2.95;1.60;;;2.40;80.10;;;;;;4995036;28;20049;-62
2020/12/26 04:38:59;;;;;;;4.13;1.80;;;2.30;80.60;;;;;;5001571;28;20045;-64
2020/12/26 04:41:24;;;;;;;6.00;1.63;;;2.30;80.40;;;;;;5001881;28;20069;-64
2020/12/26 04:43:54;;;;;;;7.18;1.98;;;2.30;81.10;;;;;;5001186;28;20038;-63
2020/12/26 04:46:23;;;;;;;4.38;1.65;;;2.30;81.40;;;;;;5000496;28;20044;-66
2020/12/26 04:49:05;;;;;;;2.78;1.45;;;2.20;80.90;;;;;;5001460;28;20071;-65
2020/12/26 04:51:33;;;;;;;2.22;1.40;;;2.20;80.80;;;;;;5001385;28;20033;-64
2020/12/26 04:54:25;;;;;;;3.35;1.80;;;2.10;80.80;;;;;;5001255;28;20730;-64
2020/12/26 04:56:54;;;;;;;4.07;1.70;;;1.90;81.50;;;;;;5001144;28;20046;-65
2020/12/26 04:59:21;;;;;;;3.50;2.30;;;1.80;82.50;;;;;;5002621;28;20037;-65
2020/12/26 05:01:48;;;;;;;5.82;2.72;;;1.70;82.80;;;;;;5001923;28;20033;-65
2020/12/26 05:04:14;;;;;;;2.30;1.88;;;1.60;83.00;;;;;;5002557;28;20034;-65
2020/12/26 05:06:51;;;;;;;7.75;2.13;;;1.50;83.00;;;;;;4984310;28;20038;-65
2020/12/26 05:09:18;;;;;;;5.57;2.33;;;1.50;83.40;;;;;;5002199;28;20874;-64
2020/12/26 05:11:56;;;;;;;7.25;2.35;;;1.40;83.80;;;;;;5001365;28;20114;-65
2020/12/26 05:14:23;;;;;;;7.13;2.65;;;1.40;84.40;;;;;;5002296;28;20030;-69
2020/12/26 05:16:49;;;;;;;6.18;2.60;;;1.40;84.80;;;;;;4967108;28;20036;-65
2020/12/26 05:19:14;;;;;;;7.60;3.25;;;1.30;85.30;;;;;;5002171;28;20029;-66
2020/12/26 05:21:40;;;;;;;6.03;3.25;;;1.20;85.60;;;;;;5001782;28;20076;-65
2020/12/26 05:24:08;;;;;;;8.55;4.30;;;1.20;86.20;;;;;;5001112;28;20037;-66
2020/12/26 05:26:43;;;;;;;10.13;3.85;;;1.20;86.30;;;;;;5001302;28;20214;-65
2020/12/26 05:29:09;;;;;;;6.88;3.67;;;1.20;86.90;;;;;;5001648;28;20141;-64
2020/12/26 05:31:47;;;;;;;9.82;3.83;;;1.10;87.00;;;;;;5001302;28;20049;-65
2020/12/26 05:34:13;;;;;;;5.47;3.83;;;1.10;87.10;;;;;;5001330;28;20040;-65
2020/12/26 05:36:39;;;;;;;9.63;4.38;;;1.20;87.40;;;;;;5000830;28;20049;-65
2020/12/26 05:39:06;;;;;;;7.60;3.65;;;1.10;87.10;;;;;;5001758;28;20034;-65
2020/12/26 05:41:32;;;;;;;9.45;4.75;;;1.00;88.10;;;;;;4994132;28;20037;-65
2020/12/26 05:43:58;;;;;;;10.65;4.65;;;0.90;88.50;;;;;;4983459;28;20736;-65
2020/12/26 05:46:24;;;;;;;8.43;4.53;;;0.90;88.60;;;;;;5000373;28;20111;-65
2020/12/26 05:48:50;;;;;;;10.82;4.50;;;0.90;88.90;;;;;;4982850;28;20036;-65
2020/12/26 05:51:28;;;;;;;8.15;4.32;;;0.90;88.40;;;;;;5000959;28;20030;-65
2020/12/26 05:53:57;;;;;;;11.15;4.70;;;1.00;88.60;;;;;;5000998;28;20048;-65
2020/12/26 05:56:23;;;;;;;9.35;5.10;;;0.90;88.90;;;;;;5000100;28;20116;-65
2020/12/26 05:58:49;;;;;;;10.13;5.22;;;0.80;89.10;;;;;;5000964;28;20049;-65
2020/12/26 06:01:21;;;;;;;14.18;6.63;;;0.90;89.20;;;;;;5000989;28;20073;-65
2020/12/26 06:03:47;;;;;;;12.02;6.13;;;0.90;89.50;;;;;;5000867;28;20034;-64
2020/12/26 06:06:15;;;;;;;9.93;5.35;;;1.00;89.30;;;;;;4998934;28;20080;-65
2020/12/26 06:08:41;;;;;;;10.07;5.40;;;1.10;88.80;;;;;;4993375;28;20037;-65
2020/12/26 06:11:07;;;;;;;11.50;5.40;;;1.20;88.10;;;;;;5000201;28;20045;-64
2020/12/26 06:14:40;;;;;;;13.70;5.65;;;1.40;87.10;;;;;;5117237;27;20316;-62
2020/12/26 06:17:06;;;;;;;10.80;4.82;;;1.50;86.60;;;;;;5102742;28;20114;-63
2020/12/26 06:19:31;;;;;;;11.48;5.72;;;1.70;86.20;;;;;;5088933;28;20064;-63
2020/12/26 06:21:57;;;;;;;15.15;6.57;;;1.70;86.00;;;;;;5098086;28;20399;-63
2020/12/26 06:24:23;;;;;;;13.35;6.10;;;1.90;86.00;;;;;;5098056;28;20047;-63
2020/12/26 06:26:58;;;;;;;13.82;6.97;;;2.00;85.30;;;;;;5061604;28;20028;-63
2020/12/26 06:29:30;;;;;;;15.73;7.82;;;2.00;85.40;;;;;;5093370;28;20032;-68
2020/12/26 06:31:56;;;;;;;17.63;7.32;;;2.10;85.30;;;;;;5096729;28;20816;-70
2020/12/26 06:34:22;;;;;;;12.40;6.53;;;2.20;85.00;;;;;;5085725;28;20040;-63
2020/12/26 06:36:56;;;;;;;15.00;6.85;;;2.20;84.90;;;;;;5105611;28;20562;-67
2020/12/26 06:39:29;;;;;;;12.70;6.72;;;2.30;84.90;;;;;;5102222;28;20031;-62
2020/12/26 06:42:18;;;;;;;13.95;6.55;;;2.30;85.50;;;;;;5096468;28;20546;-62
2020/12/26 06:44:45;;;;;;;18.45;7.63;;;2.30;84.50;;;;;;5091194;28;20082;-62
2020/12/26 06:47:34;;;;;;;18.17;8.18;;;2.30;84.60;;;;;;5102562;28;20081;-64
2020/12/26 06:50:22;;;;;;;15.70;6.90;;;2.20;84.90;;;;;;5096364;28;20047;-62
2020/12/26 06:52:48;;;;;;;14.00;7.30;;;2.20;85.10;;;;;;5076256;28;20140;-63
2020/12/26 06:55:42;;;;;;;17.42;7.00;;;2.10;85.90;;;;;;5036416;28;20040;-62
2020/12/26 06:58:10;;;;;;;17.90;7.88;;;2.10;86.20;;;;;;5042279;28;20041;-63
2020/12/26 07:00:36;;;;;;;13.95;8.05;;;2.00;86.70;;;;;;5039212;28;20029;-62
2020/12/26 07:03:18;;;;;;;17.33;8.48;;;2.00;87.20;;;;;;5048454;28;20826;-62
2020/12/26 07:05:45;;;;;;;15.23;7.00;;;2.00;87.10;;;;;;5042444;28;20148;-62
2020/12/26 07:08:24;;;;;;;19.95;8.25;;;2.10;87.30;;;;;;5034782;28;20029;-62
2020/12/26 07:10:51;;;;;;;15.02;7.93;;;2.20;87.00;;;;;;5023354;28;20041;-63
2020/12/26 07:13:42;;;;;;;19.63;8.18;;;2.20;87.20;;;;;;5041425;28;20041;-63
2020/12/26 07:16:37;;;;;;;17.25;8.23;;;2.30;87.00;;;;;;5048688;28;20033;-62
2020/12/26 07:19:25;;;;;;;17.83;8.73;;;2.30;86.40;;;;;;5033729;28;20045;-64
2020/12/26 07:21:52;;;;;;;16.63;8.05;;;2.20;86.70;;;;;;5038749;28;20028;-62
2020/12/26 07:24:23;;;;;;;30.88;12.90;;;2.20;87.20;;;;;;5036044;28;20068;-62
2020/12/26 07:26:49;;;;;;;19.83;9.10;;;2.20;86.70;;;;;;5031867;28;20174;-62
2020/12/26 07:29:27;;;;;;;21.40;9.10;;;2.30;86.70;;;;;;5007737;28;20053;-63
2020/12/26 07:31:54;;;;;;;16.55;8.35;;;2.20;86.50;;;;;;5022587;28;20033;-62
2020/12/26 07:34:36;;;;;;;16.50;8.88;;;2.30;86.40;;;;;;5023091;28;20030;-62
2020/12/26 07:37:03;;;;;;;16.67;7.85;;;2.30;86.60;;;;;;5022247;28;20041;-65
2020/12/26 07:39:29;;;;;;;14.68;7.90;;;2.40;86.10;;;;;;5023893;28;20057;-63
2020/12/26 07:41:56;;;;;;;18.23;8.32;;;2.50;85.60;;;;;;5031102;28;20108;-64
2020/12/26 07:44:29;;;;;;;21.83;8.07;;;2.60;85.00;;;;;;5031503;28;20045;-63
2020/12/26 07:46:56;;;;;;;17.58;8.27;;;2.60;85.10;;;;;;5020712;28;20116;-64
2020/12/26 07:49:24;;;;;;;20.77;7.43;;;2.70;84.50;;;;;;5028968;28;20515;-63
2020/12/26 07:52:00;;;;;;;16.13;8.23;;;2.80;84.10;;;;;;5029780;28;20175;-61
2020/12/26 07:54:26;;;;;;;;;;;2.80;83.70;;;;;;5021552;28;20081;-64
2020/12/26 07:56:56;;;;;;;25.60;7.93;;;2.70;83.90;;;;;;5025340;28;20012;-63
2020/12/26 07:59:25;;;;;;;17.67;6.88;;;2.80;84.00;;;;;;5023181;28;20041;-62
2020/12/26 08:01:55;;;;;;;18.05;8.98;;;2.80;83.90;;;;;;5019599;28;20033;-63
2020/12/26 08:04:22;;;;;;;24.73;8.35;;;2.90;83.50;;;;;;5022485;28;20038;-64
2020/12/26 08:06:48;;;;;;;19.27;7.32;;;2.90;83.30;;;;;;5027118;28;20057;-64
2020/12/26 08:09:16;;;;;;;17.58;7.65;;;3.00;82.70;;;;;;5024633;28;20048;-72
2020/12/26 08:11:42;;;;;;;13.20;7.38;;;3.10;82.70;;;;;;5031894;28;20047;-72
2020/12/26 08:14:09;;;;;;;15.48;7.63;;;3.10;82.40;;;;;;5032972;28;20038;-64
2020/12/26 08:16:36;;;;;;;14.35;6.30;;;3.20;82.00;;;;;;5026285;28;20139;-65
2020/12/26 08:19:04;;;;;;;16.63;7.28;;;3.30;81.70;;;;;;5022317;28;20049;-64
2020/12/26 08:21:30;;;;;;;14.18;7.05;;;3.40;81.20;;;;;;5019693;28;20021;-64
2020/12/26 08:24:04;;;;;;;17.17;7.95;;;3.40;80.60;;;;;;5021306;28;20029;-64
2020/12/26 08:26:32;;;;;;;14.43;7.43;;;3.50;79.90;;;;;;5023081;28;20393;-64
2020/12/26 08:29:02;;;;;;;15.20;7.53;;;3.50;79.90;;;;;;5021418;28;20061;-64
2020/12/26 08:31:30;;;;;;;15.98;6.85;;;3.60;79.60;;;;;;5034544;28;20155;-64
2020/12/26 08:34:17;;;;;;;15.75;7.25;;;3.60;79.20;;;;;;5031387;28;20036;-64
2020/12/26 08:37:12;;;;;;;18.30;6.97;;;3.60;78.50;;;;;;5027564;28;20033;-63
2020/12/26 08:39:40;;;;;;;13.65;7.85;;;3.60;78.90;;;;;;5023480;28;20122;-63
2020/12/26 08:42:12;;;;;;;19.48;8.10;;;3.70;78.80;;;;;;5021607;28;20691;-71
2020/12/26 08:44:38;;;;;;;13.25;5.88;;;3.80;78.30;;;;;;5023867;28;20037;-71
2020/12/26 08:47:06;;;;;;;13.40;6.85;;;3.70;78.00;;;;;;5028562;28;20041;-71
2020/12/26 08:49:32;;;;;;;13.57;6.88;;;3.80;78.20;;;;;;5021421;28;20052;-70
2020/12/26 08:52:00;;;;;;;12.38;5.97;;;3.80;77.70;;;;;;5031961;28;20064;-71
2020/12/26 08:54:26;;;;;;;10.82;6.30;;;3.90;77.70;;;;;;5027507;28;20045;-70
2020/12/26 08:56:52;;;;;;;11.60;6.20;;;3.80;77.50;;;;;;5023730;28;20502;-64
2020/12/26 08:59:28;;;;;;;11.55;7.30;;;3.70;78.10;;;;;;5024177;28;20171;-63
2020/12/26 09:01:57;;;;;;;13.80;6.93;;;3.70;78.40;;;;;;5035800;28;20040;-65
2020/12/26 09:04:23;;;;;;;14.00;6.93;;;3.70;78.10;;;;;;5019578;28;20337;-68
2020/12/26 09:06:49;;;;;;;12.23;7.15;;;3.70;78.20;;;;;;5023410;28;20047;-67
2020/12/26 09:09:18;;;;;;;9.93;6.03;;;3.70;77.60;;;;;;5024951;28;20037;-63
2020/12/26 09:11:45;;;;;;;12.90;6.55;;;3.80;77.40;;;;;;5020572;28;20033;-64
2020/12/26 09:14:16;;;;;;;15.15;8.38;;;3.70;77.10;;;;;;5036399;28;20041;-64
2020/12/26 09:16:41;;;;;;;12.55;7.30;;;3.70;77.80;;;;;;5027346;28;20029;-64
2020/12/26 09:19:07;;;;;;;14.90;7.32;;;3.70;77.40;;;;;;5025179;28;20872;-63
2020/12/26 09:21:34;;;;;;;18.55;7.78;;;3.70;77.40;;;;;;5023147;28;20030;-63
2020/12/26 09:23:59;;;;;;;9.50;5.47;;;3.90;77.60;;;;;;5029535;28;20113;-65
2020/12/26 09:26:34;;;;;;;14.98;7.57;;;4.00;76.60;;;;;;5029110;28;20747;-65
2020/12/26 09:29:03;;;;;;;16.33;7.47;;;3.90;76.30;;;;;;5020879;28;20036;-64
2020/12/26 09:31:31;;;;;;;14.05;8.25;;;3.90;76.60;;;;;;5020168;28;20096;-64
2020/12/26 09:33:58;;;;;;;9.88;6.22;;;4.00;76.90;;;;;;5031918;28;20072;-65
2020/12/26 09:36:26;;;;;;;12.93;6.63;;;4.00;76.30;;;;;;5020923;28;20611;-64
2020/12/26 09:38:54;;;;;;;15.48;7.20;;;4.10;76.00;;;;;;5023196;28;20044;-64
2020/12/26 09:41:25;;;;;;;10.85;6.43;;;4.10;76.00;;;;;;5027221;28;20028;-63
2020/12/26 09:43:53;;;;;;;9.63;5.05;;;4.00;76.40;;;;;;5021731;28;20138;-72
2020/12/26 09:46:20;;;;;;;10.25;5.35;;;4.20;76.50;;;;;;5023917;28;20033;-64
2020/12/26 09:48:47;;;;;;;9.25;5.20;;;4.20;75.10;;;;;;5027301;28;20155;-64
2020/12/26 09:51:17;;;;;;;10.80;6.10;;;4.10;75.60;;;;;;5020250;28;20044;-63
2020/12/26 09:53:43;;;;;;;8.85;5.43;;;4.10;75.40;;;;;;5021093;28;20044;-63
2020/12/26 09:56:10;;;;;;;11.48;4.70;;;4.20;75.20;;;;;;5020561;28;20033;-64
2020/12/26 09:58:41;;;;;;;11.40;4.75;;;4.20;75.50;;;;;;5033787;28;20619;-68
2020/12/26 10:01:07;;;;;;;9.18;5.32;;;4.00;75.40;;;;;;5020540;28;20099;-74
2020/12/26 10:03:34;;;;;;;11.23;4.95;;;3.80;75.90;;;;;;5021535;28;20038;-73
2020/12/26 10:06:00;;;;;;;10.98;6.93;;;3.60;76.50;;;;;;5026727;28;20033;-70
2020/12/26 10:08:29;;;;;;;11.02;6.25;;;3.70;77.20;;;;;;5029023;28;20107;-71
2020/12/26 10:10:55;;;;;;;8.52;4.93;;;3.80;77.20;;;;;;5020936;28;20135;-70
2020/12/26 10:13:21;;;;;;;12.05;6.15;;;3.80;76.70;;;;;;5008577;28;20037;-71
2020/12/26 10:15:46;;;;;;;17.95;10.05;;;4.00;77.30;;;;;;5021032;28;20811;-65
2020/12/26 10:18:12;;;;;;;8.88;5.60;;;4.20;76.30;;;;;;5023630;28;20083;-64
2020/12/26 10:20:37;;;;;;;9.20;4.65;;;4.10;76.10;;;;;;5021397;28;20107;-65
2020/12/26 10:23:03;;;;;;;10.25;4.55;;;3.70;76.60;;;;;;5037518;28;20036;-62
2020/12/26 10:25:29;;;;;;;8.43;4.68;;;3.60;77.40;;;;;;5023761;28;20112;-65
2020/12/26 10:27:55;;;;;;;7.97;4.43;;;3.60;78.10;;;;;;5027206;28;20036;-67
2020/12/26 10:30:21;;;;;;;6.57;4.13;;;3.70;78.20;;;;;;5021250;28;20400;-71
2020/12/26 10:32:47;;;;;;;8.48;4.18;;;3.70;78.20;;;;;;5006369;28;20155;-64
2020/12/26 10:35:14;;;;;;;12.25;6.63;;;3.80;77.90;;;;;;5006899;28;20040;-64
2020/12/26 10:37:39;;;;;;;9.63;4.57;;;4.00;77.90;;;;;;5021270;28;20033;-64
2020/12/26 10:40:06;;;;;;;9.52;4.45;;;4.10;77.10;;;;;;5021023;28;20075;-64
2020/12/26 10:42:32;;;;;;;11.45;5.13;;;4.10;76.20;;;;;;5018811;28;20124;-65
2020/12/26 10:44:58;;;;;;;13.10;7.35;;;4.00;76.40;;;;;;5026336;28;20443;-65
2020/12/26 10:47:23;;;;;;;14.98;8.13;;;3.90;77.30;;;;;;5026459;28;20838;-65
2020/12/26 10:49:49;;;;;;;15.77;7.72;;;3.90;78.10;;;;;;5022578;28;20087;-65
2020/12/26 10:52:15;;;;;;;16.75;8.27;;;3.90;78.40;;;;;;5031559;28;20386;-66
2020/12/26 10:54:41;;;;;;;36.63;14.63;;;4.00;78.70;;;;;;5028801;28;20083;-62
2020/12/26 10:57:06;;;;;;;40.60;15.40;;;3.90;79.00;;;;;;5023313;28;20032;-63
2020/12/26 10:59:32;;;;;;;29.65;14.02;;;3.90;79.70;;;;;;5035469;28;20037;-64
2020/12/26 11:01:58;;;;;;;29.08;12.20;;;3.90;80.30;;;;;;5026276;28;20091;-65
2020/12/26 11:04:24;;;;;;;18.33;6.90;;;3.90;80.00;;;;;;5023755;28;20044;-64
2020/12/26 11:06:50;;;;;;;19.50;8.32;;;3.90;80.50;;;;;;5030029;28;20110;-71
2020/12/26 11:09:16;;;;;;;36.97;15.43;;;4.00;80.50;;;;;;5037033;28;20140;-71
2020/12/26 11:11:47;;;;;;;38.03;15.65;;;4.00;80.20;;;;;;5036201;28;20735;-63
2020/12/26 11:14:13;;;;;;;25.33;10.65;;;3.90;80.20;;;;;;5023862;28;20041;-64
2020/12/26 11:16:39;;;;;;;29.15;11.25;;;3.90;81.10;;;;;;5024950;28;20088;-64
2020/12/26 11:19:04;;;;;;;19.83;8.65;;;3.90;81.40;;;;;;5023569;28;20025;-64
2020/12/26 11:21:30;;;;;;;10.75;4.90;;;3.80;81.90;;;;;;5032040;28;20033;-64
2020/12/26 11:23:55;;;;;;;9.30;4.30;;;3.80;81.50;;;;;;5032736;28;20025;-70
2020/12/26 11:26:21;;;;;;;18.13;7.82;;;4.00;82.50;;;;;;5033556;28;20083;-70
2020/12/26 11:28:47;;;;;;;10.73;5.57;;;4.10;80.90;;;;;;5033219;28;20029;-65
2020/12/26 11:31:20;;;;;;;8.18;4.13;;;4.30;80.20;;;;;;5027364;28;20076;-65
2020/12/26 11:33:46;;;;;;;11.38;4.65;;;4.40;80.10;;;;;;5029692;28;20069;-60
2020/12/26 11:36:17;;;;;;;10.00;5.03;;;4.40;79.70;;;;;;5021886;28;20132;-62
2020/12/26 11:38:43;;;;;;;9.50;4.90;;;4.40;79.70;;;;;;5033152;28;20033;-60
2020/12/26 11:41:09;;;;;;;8.77;5.03;;;4.60;80.10;;;;;;5029317;28;20114;-61
2020/12/26 11:43:35;;;;;;;16.05;7.57;;;4.70;79.20;;;;;;5025026;28;20183;-62
2020/12/26 11:46:00;;;;;;;23.23;10.07;;;4.80;78.20;;;;;;5039061;28;20563;-64
2020/12/26 11:48:26;;;;;;;11.45;5.57;;;4.90;78.00;;;;;;5024730;28;20490;-60
2020/12/26 11:50:51;;;;;;;9.35;4.95;;;5.10;77.80;;;;;;5022753;28;20060;-61
2020/12/26 11:53:17;;;;;;;8.20;4.45;;;5.20;77.40;;;;;;5022270;28;20033;-61
2020/12/26 11:55:43;;;;;;;11.90;6.53;;;5.30;76.90;;;;;;5030181;28;20029;-61
2020/12/26 11:58:08;;;;;;;12.77;6.30;;;5.40;76.60;;;;;;5009007;28;20698;-66
2020/12/26 12:00:34;;;;;;;17.73;7.90;;;5.40;76.30;;;;;;5038523;28;20560;-65
2020/12/26 12:03:00;;;;;;;12.55;6.28;;;5.40;76.10;;;;;;5020907;28;20565;-68
2020/12/26 12:05:25;;;;;;;13.23;6.68;;;5.50;76.00;;;;;;5027201;28;20090;-65
2020/12/26 12:07:51;;;;;;;12.23;6.30;;;5.50;76.20;;;;;;5032102;28;20041;-65
2020/12/26 12:10:17;;;;;;;13.52;5.75;;;5.40;75.50;;;;;;5030672;28;20042;-65
2020/12/26 12:12:42;;;;;;;15.10;6.90;;;5.00;76.60;;;;;;5023400;28;20036;-66
2020/12/26 12:15:08;;;;;;;13.90;6.82;;;5.00;78.00;;;;;;5026333;28;20116;-65
2020/12/26 12:17:34;;;;;;;23.60;7.28;;;4.90;77.90;;;;;;5030091;28;20036;-66
2020/12/26 12:19:59;;;;;;;15.60;5.60;;;5.00;78.00;;;;;;5033861;28;20025;-65
2020/12/26 12:22:25;;;;;;;9.95;5.03;;;5.00;77.80;;;;;;5023568;28;20934;-65
2020/12/26 12:24:51;;;;;;;11.07;5.20;;;4.80;78.60;;;;;;5022859;28;20028;-65
2020/12/26 12:27:16;;;;;;;9.13;5.07;;;4.70;79.30;;;;;;5026389;28;20119;-65
2020/12/26 12:29:42;;;;;;;6.07;4.43;;;4.70;79.90;;;;;;5021886;28;20117;-65
2020/12/26 12:32:10;;;;;;;9.60;5.05;;;4.70;80.00;;;;;;5021777;28;20029;-65
2020/12/26 12:34:36;;;;;;;14.75;5.82;;;4.80;79.90;;;;;;5028887;28;20030;-66
2020/12/26 12:37:01;;;;;;;7.75;4.60;;;4.90;79.40;;;;;;5025057;28;20033;-65
2020/12/26 12:39:27;;;;;;;11.10;4.30;;;4.80;79.40;;;;;;5030350;28;20595;-65
2020/12/26 12:41:54;;;;;;;10.30;4.80;;;4.90;78.90;;;;;;5018957;28;20177;-66
2020/12/26 12:44:20;;;;;;;10.07;4.43;;;4.80;79.20;;;;;;5021560;28;20041;-66
2020/12/26 12:46:45;;;;;;;9.25;4.78;;;4.80;79.80;;;;;;5022433;28;20118;-65
2020/12/26 12:49:11;;;;;;;12.07;5.20;;;4.80;80.10;;;;;;5028958;28;20037;-65
2020/12/26 12:51:36;;;;;;;11.18;4.82;;;4.90;79.80;;;;;;5029496;28;20045;-65
2020/12/26 12:54:02;;;;;;;9.05;5.07;;;4.90;79.40;;;;;;5029773;28;20113;-66
2020/12/26 12:56:29;;;;;;;8.90;4.07;;;4.70;80.00;;;;;;5027240;28;20037;-65